sensor_id;sensor_type;location;lat;lon;timestamp;temperature;humidity
31991;DHT22;18508;49.386;8.370;2022-09-09T00:00:14;15.30;99.90
31991;DHT22;18508;49.386;8.370;2022-09-09T00:02:46;15.40;99.90
31991;DHT22;18508;49.386;8.370;2022-09-09T00:05:23;15.40;99.90
31991;DHT22;18508;49.386;8.370;2022-09-09T00:08:03;15.40;99.90
31991;DHT22;18508;49.386;8.370;2022-09-09T00:10:34;15.50;99.90
31991;DHT22;18508;49.386;8.370;2022-09-09T00:13:13;15.50;99.90
31991;DHT22;18508;49.386;8.370;2022-09-09T00:15:52;15.50;99.90
31991;DHT22;18508;49.386;8.370;2022-09-09T00:18:25;15.60;99.90
31991;DHT22;18508;49.386;8.370;2022-09-09T00:21:06;15.60;99.90
31991;DHT22;18508;49.386;8.370;2022-09-09T00:23:39;15.70;99.90
31991;DHT22;18508;49.386;8.370;2022-09-09T00:26:16;15.70;99.90
31991;DHT22;18508;49.386;8.370;2022-09-09T00:28:52;16.30;99.90
31991;DHT22;18508;49.386;8.370;2022-09-09T00:31:21;15.80;99.90
31991;DHT22;18508;49.386;8.370;2022-09-09T00:33:52;15.80;99.90
31991;DHT22;18508;49.386;8.370;2022-09-09T00:36:24;15.80;99.90
31991;DHT22;18508;49.386;8.370;2022-09-09T00:38:57;15.80;99.90
31991;DHT22;18508;49.386;8.370;2022-09-09T00:41:38;15.90;99.90
31991;DHT22;18508;49.386;8.370;2022-09-09T00:44:21;15.90;99.90
31991;DHT22;18508;49.386;8.370;2022-09-09T00:46:59;16.30;99.90
31991;DHT22;18508;49.386;8.370;2022-09-09T00:49:43;15.90;99.90
31991;DHT22;18508;49.386;8.370;2022-09-09T00:52:23;15.90;99.90
31991;DHT22;18508;49.386;8.370;2022-09-09T00:55:00;15.90;99.90
31991;DHT22;18508;49.386;8.370;2022-09-09T00:57:35;15.90;99.90
31991;DHT22;18508;49.386;8.370;2022-09-09T01:00:24;15.80;99.90
31991;DHT22;18508;49.386;8.370;2022-09-09T01:03:00;15.80;99.90
31991;DHT22;18508;49.386;8.370;2022-09-09T01:05:36;15.80;99.90
31991;DHT22;18508;49.386;8.370;2022-09-09T01:08:14;15.80;99.90
31991;DHT22;18508;49.386;8.370;2022-09-09T01:10:50;16.00;99.90
31991;DHT22;18508;49.386;8.370;2022-09-09T01:13:24;15.80;99.90
31991;DHT22;18508;49.386;8.370;2022-09-09T01:15:53;15.80;99.90
31991;DHT22;18508;49.386;8.370;2022-09-09T01:18:30;15.70;99.90
31991;DHT22;18508;49.386;8.370;2022-09-09T01:21:06;15.70;99.90
31991;DHT22;18508;49.386;8.370;2022-09-09T01:24:05;15.70;99.90
31991;DHT22;18508;49.386;8.370;2022-09-09T01:26:39;15.70;99.90
31991;DHT22;18508;49.386;8.370;2022-09-09T01:29:11;15.70;99.90
31991;DHT22;18508;49.386;8.370;2022-09-09T01:31:42;15.70;99.90
31991;DHT22;18508;49.386;8.370;2022-09-09T01:34:12;15.70;99.90
31991;DHT22;18508;49.386;8.370;2022-09-09T01:36:43;15.70;99.90
31991;DHT22;18508;49.386;8.370;2022-09-09T01:39:12;15.80;99.90
31991;DHT22;18508;49.386;8.370;2022-09-09T01:41:42;16.40;99.90
31991;DHT22;18508;49.386;8.370;2022-09-09T01:44:13;15.80;99.90
31991;DHT22;18508;49.386;8.370;2022-09-09T01:46:41;15.80;99.90
31991;DHT22;18508;49.386;8.370;2022-09-09T01:49:09;15.80;99.90
31991;DHT22;18508;49.386;8.370;2022-09-09T01:51:39;15.80;99.90
31991;DHT22;18508;49.386;8.370;2022-09-09T01:54:09;15.90;99.90
31991;DHT22;18508;49.386;8.370;2022-09-09T01:56:46;15.80;99.90
31991;DHT22;18508;49.386;8.370;2022-09-09T01:59:48;15.80;99.90
31991;DHT22;18508;49.386;8.370;2022-09-09T02:02:18;15.80;99.90
31991;DHT22;18508;49.386;8.370;2022-09-09T02:04:50;15.80;99.90
31991;DHT22;18508;49.386;8.370;2022-09-09T02:07:33;15.80;99.90
31991;DHT22;18508;49.386;8.370;2022-09-09T02:10:24;15.80;99.90
31991;DHT22;18508;49.386;8.370;2022-09-09T02:13:00;15.70;99.90
31991;DHT22;18508;49.386;8.370;2022-09-09T02:15:34;15.70;99.90
31991;DHT22;18508;49.386;8.370;2022-09-09T02:18:05;15.70;99.90
31991;DHT22;18508;49.386;8.370;2022-09-09T02:20:37;15.70;99.90
31991;DHT22;18508;49.386;8.370;2022-09-09T02:23:06;15.70;99.90
31991;DHT22;18508;49.386;8.370;2022-09-09T02:25:36;15.70;99.90
31991;DHT22;18508;49.386;8.370;2022-09-09T02:28:07;15.70;99.90
31991;DHT22;18508;49.386;8.370;2022-09-09T02:30:39;15.70;99.90
31991;DHT22;18508;49.386;8.370;2022-09-09T02:33:09;15.70;99.90
31991;DHT22;18508;49.386;8.370;2022-09-09T02:35:41;15.60;99.90
31991;DHT22;18508;49.386;8.370;2022-09-09T02:38:12;15.60;99.90
31991;DHT22;18508;49.386;8.370;2022-09-09T02:40:41;15.60;99.90
31991;DHT22;18508;49.386;8.370;2022-09-09T02:43:10;16.00;99.90
31991;DHT22;18508;49.386;8.370;2022-09-09T02:45:42;15.50;99.90
31991;DHT22;18508;49.386;8.370;2022-09-09T02:48:28;15.50;99.90
31991;DHT22;18508;49.386;8.370;2022-09-09T02:51:05;15.50;99.90
31991;DHT22;18508;49.386;8.370;2022-09-09T02:53:43;15.50;99.90
31991;DHT22;18508;49.386;8.370;2022-09-09T02:56:16;15.50;99.90
31991;DHT22;18508;49.386;8.370;2022-09-09T02:58:48;15.50;99.90
31991;DHT22;18508;49.386;8.370;2022-09-09T03:01:21;15.50;99.90
31991;DHT22;18508;49.386;8.370;2022-09-09T03:03:52;15.40;99.90
31991;DHT22;18508;49.386;8.370;2022-09-09T03:06:21;15.50;99.90
31991;DHT22;18508;49.386;8.370;2022-09-09T03:11:19;15.30;99.90
31991;DHT22;18508;49.386;8.370;2022-09-09T03:13:51;15.30;99.90
31991;DHT22;18508;49.386;8.370;2022-09-09T03:16:19;15.30;99.90
31991;DHT22;18508;49.386;8.370;2022-09-09T03:18:48;15.20;99.90
31991;DHT22;18508;49.386;8.370;2022-09-09T03:21:16;15.20;99.90
31991;DHT22;18508;49.386;8.370;2022-09-09T03:23:48;15.20;99.90
31991;DHT22;18508;49.386;8.370;2022-09-09T03:26:16;15.10;99.90
31991;DHT22;18508;49.386;8.370;2022-09-09T03:28:45;14.90;99.90
31991;DHT22;18508;49.386;8.370;2022-09-09T03:31:15;15.20;99.90
31991;DHT22;18508;49.386;8.370;2022-09-09T03:33:43;15.20;99.90
31991;DHT22;18508;49.386;8.370;2022-09-09T03:36:14;15.20;99.90
31991;DHT22;18508;49.386;8.370;2022-09-09T03:38:42;15.20;99.90
31991;DHT22;18508;49.386;8.370;2022-09-09T03:41:11;15.20;99.90
31991;DHT22;18508;49.386;8.370;2022-09-09T03:43:39;15.20;99.90
31991;DHT22;18508;49.386;8.370;2022-09-09T03:46:08;15.20;99.90
31991;DHT22;18508;49.386;8.370;2022-09-09T03:48:38;15.20;99.90
31991;DHT22;18508;49.386;8.370;2022-09-09T03:51:06;15.20;99.90
31991;DHT22;18508;49.386;8.370;2022-09-09T03:53:35;15.20;99.90
31991;DHT22;18508;49.386;8.370;2022-09-09T03:56:05;15.10;99.90
31991;DHT22;18508;49.386;8.370;2022-09-09T03:58:35;15.10;99.90
31991;DHT22;18508;49.386;8.370;2022-09-09T04:01:06;15.40;99.90
31991;DHT22;18508;49.386;8.370;2022-09-09T04:03:35;15.10;99.90
31991;DHT22;18508;49.386;8.370;2022-09-09T04:06:06;15.00;99.90
31991;DHT22;18508;49.386;8.370;2022-09-09T04:08:39;15.00;99.90
31991;DHT22;18508;49.386;8.370;2022-09-09T04:11:08;15.10;99.90
31991;DHT22;18508;49.386;8.370;2022-09-09T04:13:38;14.80;99.90
31991;DHT22;18508;49.386;8.370;2022-09-09T04:16:09;15.10;99.90
31991;DHT22;18508;49.386;8.370;2022-09-09T04:18:39;15.20;99.90
31991;DHT22;18508;49.386;8.370;2022-09-09T04:21:11;15.20;99.90
31991;DHT22;18508;49.386;8.370;2022-09-09T04:23:40;15.30;99.90
31991;DHT22;18508;49.386;8.370;2022-09-09T04:26:08;15.30;99.90
31991;DHT22;18508;49.386;8.370;2022-09-09T04:28:37;15.40;99.90
31991;DHT22;18508;49.386;8.370;2022-09-09T04:31:07;15.40;99.90
31991;DHT22;18508;49.386;8.370;2022-09-09T04:33:36;15.40;99.90
31991;DHT22;18508;49.386;8.370;2022-09-09T04:36:09;15.40;99.90
31991;DHT22;18508;49.386;8.370;2022-09-09T04:38:40;15.50;99.90
31991;DHT22;18508;49.386;8.370;2022-09-09T04:41:10;15.50;99.90
31991;DHT22;18508;49.386;8.370;2022-09-09T04:43:39;15.50;99.90
31991;DHT22;18508;49.386;8.370;2022-09-09T04:46:08;15.50;99.90
31991;DHT22;18508;49.386;8.370;2022-09-09T04:48:36;15.50;99.90
31991;DHT22;18508;49.386;8.370;2022-09-09T04:51:12;15.50;99.90
31991;DHT22;18508;49.386;8.370;2022-09-09T04:53:43;15.50;99.90
31991;DHT22;18508;49.386;8.370;2022-09-09T04:56:13;15.50;99.90
31991;DHT22;18508;49.386;8.370;2022-09-09T04:58:42;15.50;99.90
31991;DHT22;18508;49.386;8.370;2022-09-09T05:01:12;15.50;99.90
31991;DHT22;18508;49.386;8.370;2022-09-09T05:03:41;16.70;99.90
31991;DHT22;18508;49.386;8.370;2022-09-09T05:06:12;15.50;99.90
31991;DHT22;18508;49.386;8.370;2022-09-09T05:08:41;15.50;99.90
31991;DHT22;18508;49.386;8.370;2022-09-09T05:11:14;15.20;99.90
31991;DHT22;18508;49.386;8.370;2022-09-09T05:13:44;15.50;99.90
31991;DHT22;18508;49.386;8.370;2022-09-09T05:16:13;15.30;99.90
31991;DHT22;18508;49.386;8.370;2022-09-09T05:18:42;15.90;99.90
31991;DHT22;18508;49.386;8.370;2022-09-09T05:21:14;15.50;99.90
31991;DHT22;18508;49.386;8.370;2022-09-09T05:23:42;15.60;99.90
31991;DHT22;18508;49.386;8.370;2022-09-09T05:26:13;15.50;99.90
31991;DHT22;18508;49.386;8.370;2022-09-09T05:28:44;15.50;99.90
31991;DHT22;18508;49.386;8.370;2022-09-09T05:31:13;15.60;99.90
31991;DHT22;18508;49.386;8.370;2022-09-09T05:33:44;15.70;99.90
31991;DHT22;18508;49.386;8.370;2022-09-09T05:36:15;15.60;99.90
31991;DHT22;18508;49.386;8.370;2022-09-09T05:38:45;15.60;99.90
31991;DHT22;18508;49.386;8.370;2022-09-09T05:41:14;15.50;99.90
31991;DHT22;18508;49.386;8.370;2022-09-09T05:43:42;15.50;99.90
31991;DHT22;18508;49.386;8.370;2022-09-09T05:46:14;15.50;99.90
31991;DHT22;18508;49.386;8.370;2022-09-09T05:48:44;15.40;99.90
31991;DHT22;18508;49.386;8.370;2022-09-09T05:51:16;15.50;99.90
31991;DHT22;18508;49.386;8.370;2022-09-09T05:53:45;15.40;99.90
31991;DHT22;18508;49.386;8.370;2022-09-09T05:56:15;15.40;99.90
31991;DHT22;18508;49.386;8.370;2022-09-09T05:58:45;15.40;99.90
31991;DHT22;18508;49.386;8.370;2022-09-09T06:01:16;15.50;99.90
31991;DHT22;18508;49.386;8.370;2022-09-09T06:03:46;15.50;99.90
31991;DHT22;18508;49.386;8.370;2022-09-09T06:06:17;15.60;99.90
31991;DHT22;18508;49.386;8.370;2022-09-09T06:08:48;15.60;99.90
31991;DHT22;18508;49.386;8.370;2022-09-09T06:11:20;15.70;99.90
31991;DHT22;18508;49.386;8.370;2022-09-09T06:13:49;15.80;99.90
31991;DHT22;18508;49.386;8.370;2022-09-09T06:16:21;16.00;99.90
31991;DHT22;18508;49.386;8.370;2022-09-09T06:18:51;16.00;99.90
31991;DHT22;18508;49.386;8.370;2022-09-09T06:21:22;16.10;99.90
31991;DHT22;18508;49.386;8.370;2022-09-09T06:23:52;16.10;99.90
31991;DHT22;18508;49.386;8.370;2022-09-09T06:26:29;16.10;99.90
31991;DHT22;18508;49.386;8.370;2022-09-09T06:28:59;16.20;99.90
31991;DHT22;18508;49.386;8.370;2022-09-09T06:31:30;16.10;99.90
31991;DHT22;18508;49.386;8.370;2022-09-09T06:34:01;16.20;99.90
31991;DHT22;18508;49.386;8.370;2022-09-09T06:36:33;16.20;99.90
31991;DHT22;18508;49.386;8.370;2022-09-09T06:39:05;16.40;99.90
31991;DHT22;18508;49.386;8.370;2022-09-09T06:41:41;16.30;99.90
31991;DHT22;18508;49.386;8.370;2022-09-09T06:44:10;16.50;99.90
31991;DHT22;18508;49.386;8.370;2022-09-09T06:46:43;16.60;99.90
31991;DHT22;18508;49.386;8.370;2022-09-09T06:49:14;16.60;99.90
31991;DHT22;18508;49.386;8.370;2022-09-09T06:51:43;16.60;99.90
31991;DHT22;18508;49.386;8.370;2022-09-09T06:54:13;16.60;99.90
31991;DHT22;18508;49.386;8.370;2022-09-09T06:56:41;16.80;99.90
31991;DHT22;18508;49.386;8.370;2022-09-09T06:59:12;16.90;99.90
31991;DHT22;18508;49.386;8.370;2022-09-09T07:01:41;16.80;99.90
31991;DHT22;18508;49.386;8.370;2022-09-09T07:04:10;17.10;99.90
31991;DHT22;18508;49.386;8.370;2022-09-09T07:06:43;17.10;99.90
31991;DHT22;18508;49.386;8.370;2022-09-09T07:09:13;17.30;99.90
31991;DHT22;18508;49.386;8.370;2022-09-09T07:11:43;17.60;99.90
31991;DHT22;18508;49.386;8.370;2022-09-09T07:14:11;17.70;99.90
31991;DHT22;18508;49.386;8.370;2022-09-09T07:19:09;17.80;99.90
31991;DHT22;18508;49.386;8.370;2022-09-09T07:21:37;17.80;99.90
31991;DHT22;18508;49.386;8.370;2022-09-09T07:24:10;18.00;99.90
31991;DHT22;18508;49.386;8.370;2022-09-09T07:26:40;18.00;99.90
31991;DHT22;18508;49.386;8.370;2022-09-09T07:29:09;18.10;99.90
31991;DHT22;18508;49.386;8.370;2022-09-09T07:31:46;18.10;99.90
31991;DHT22;18508;49.386;8.370;2022-09-09T07:34:15;18.00;99.90
31991;DHT22;18508;49.386;8.370;2022-09-09T07:36:43;18.10;99.90
31991;DHT22;18508;49.386;8.370;2022-09-09T07:39:14;17.90;99.90
31991;DHT22;18508;49.386;8.370;2022-09-09T07:41:45;18.00;99.90
31991;DHT22;18508;49.386;8.370;2022-09-09T07:44:15;18.10;99.90
31991;DHT22;18508;49.386;8.370;2022-09-09T07:46:46;18.20;99.90
31991;DHT22;18508;49.386;8.370;2022-09-09T07:49:14;18.30;99.90
31991;DHT22;18508;49.386;8.370;2022-09-09T07:51:52;18.30;99.90
31991;DHT22;18508;49.386;8.370;2022-09-09T07:54:21;18.40;99.90
31991;DHT22;18508;49.386;8.370;2022-09-09T07:56:51;18.60;99.90
31991;DHT22;18508;49.386;8.370;2022-09-09T07:59:20;18.70;99.90
31991;DHT22;18508;49.386;8.370;2022-09-09T08:01:50;18.70;99.90
31991;DHT22;18508;49.386;8.370;2022-09-09T08:04:22;18.80;99.90
31991;DHT22;18508;49.386;8.370;2022-09-09T08:06:53;19.10;99.90
31991;DHT22;18508;49.386;8.370;2022-09-09T08:09:24;19.10;99.90
31991;DHT22;18508;49.386;8.370;2022-09-09T08:11:53;19.10;99.90
31991;DHT22;18508;49.386;8.370;2022-09-09T08:14:25;19.00;99.90
31991;DHT22;18508;49.386;8.370;2022-09-09T08:16:54;18.70;99.90
31991;DHT22;18508;49.386;8.370;2022-09-09T08:19:27;18.70;99.90
31991;DHT22;18508;49.386;8.370;2022-09-09T08:22:09;18.70;99.90
31991;DHT22;18508;49.386;8.370;2022-09-09T08:24:39;18.60;99.90
31991;DHT22;18508;49.386;8.370;2022-09-09T08:27:09;18.70;99.90
31991;DHT22;18508;49.386;8.370;2022-09-09T08:29:38;18.80;99.90
31991;DHT22;18508;49.386;8.370;2022-09-09T08:32:20;18.80;99.90
31991;DHT22;18508;49.386;8.370;2022-09-09T08:35:22;18.80;99.90
31991;DHT22;18508;49.386;8.370;2022-09-09T08:37:57;18.80;99.90
31991;DHT22;18508;49.386;8.370;2022-09-09T08:40:30;18.80;99.90
31991;DHT22;18508;49.386;8.370;2022-09-09T08:43:02;18.60;99.90
31991;DHT22;18508;49.386;8.370;2022-09-09T08:45:35;18.50;99.90
31991;DHT22;18508;49.386;8.370;2022-09-09T08:48:23;18.40;99.90
31991;DHT22;18508;49.386;8.370;2022-09-09T08:50:59;18.60;99.90
31991;DHT22;18508;49.386;8.370;2022-09-09T08:53:36;18.70;99.90
31991;DHT22;18508;49.386;8.370;2022-09-09T08:56:12;18.80;99.90
31991;DHT22;18508;49.386;8.370;2022-09-09T08:58:45;19.00;99.90
31991;DHT22;18508;49.386;8.370;2022-09-09T09:01:35;19.20;99.90
31991;DHT22;18508;49.386;8.370;2022-09-09T09:05:00;19.20;99.90
31991;DHT22;18508;49.386;8.370;2022-09-09T09:08:16;19.20;99.90
31991;DHT22;18508;49.386;8.370;2022-09-09T09:11:12;19.50;99.90
31991;DHT22;18508;49.386;8.370;2022-09-09T09:13:50;20.00;99.90
31991;DHT22;18508;49.386;8.370;2022-09-09T09:16:27;20.40;99.90
31991;DHT22;18508;49.386;8.370;2022-09-09T09:18:59;20.50;99.90
31991;DHT22;18508;49.386;8.370;2022-09-09T09:21:34;20.50;99.90
31991;DHT22;18508;49.386;8.370;2022-09-09T09:24:05;20.60;99.90
31991;DHT22;18508;49.386;8.370;2022-09-09T09:26:38;20.70;99.90
31991;DHT22;18508;49.386;8.370;2022-09-09T09:29:10;20.50;99.90
31991;DHT22;18508;49.386;8.370;2022-09-09T09:31:38;20.30;99.90
31991;DHT22;18508;49.386;8.370;2022-09-09T09:34:08;20.00;99.90
31991;DHT22;18508;49.386;8.370;2022-09-09T09:36:40;19.50;99.90
31991;DHT22;18508;49.386;8.370;2022-09-09T09:39:22;18.90;99.90
31991;DHT22;18508;49.386;8.370;2022-09-09T09:42:16;18.30;99.90
31991;DHT22;18508;49.386;8.370;2022-09-09T09:44:49;17.10;99.90
31991;DHT22;18508;49.386;8.370;2022-09-09T09:47:21;16.60;99.90
31991;DHT22;18508;49.386;8.370;2022-09-09T09:49:56;16.30;99.90
31991;DHT22;18508;49.386;8.370;2022-09-09T09:52:28;16.20;99.90
31991;DHT22;18508;49.386;8.370;2022-09-09T09:54:58;16.40;99.90
31991;DHT22;18508;49.386;8.370;2022-09-09T09:57:35;16.80;99.90
31991;DHT22;18508;49.386;8.370;2022-09-09T10:00:13;17.20;99.90
31991;DHT22;18508;49.386;8.370;2022-09-09T10:02:45;17.30;99.90
31991;DHT22;18508;49.386;8.370;2022-09-09T10:05:17;17.40;99.90
31991;DHT22;18508;49.386;8.370;2022-09-09T10:08:03;17.70;99.90
31991;DHT22;18508;49.386;8.370;2022-09-09T10:10:42;18.00;99.90
31991;DHT22;18508;49.386;8.370;2022-09-09T10:13:19;18.00;99.90
31991;DHT22;18508;49.386;8.370;2022-09-09T10:15:59;18.20;99.90
31991;DHT22;18508;49.386;8.370;2022-09-09T10:18:39;18.20;99.90
31991;DHT22;18508;49.386;8.370;2022-09-09T10:21:24;18.10;99.90
31991;DHT22;18508;49.386;8.370;2022-09-09T10:24:15;18.20;99.90
31991;DHT22;18508;49.386;8.370;2022-09-09T10:26:54;18.20;99.90
31991;DHT22;18508;49.386;8.370;2022-09-09T10:29:43;18.00;99.90
31991;DHT22;18508;49.386;8.370;2022-09-09T10:35:19;18.00;99.90
31991;DHT22;18508;49.386;8.370;2022-09-09T10:38:11;18.00;99.90
31991;DHT22;18508;49.386;8.370;2022-09-09T10:40:46;18.20;99.90
31991;DHT22;18508;49.386;8.370;2022-09-09T10:43:28;18.10;99.90
31991;DHT22;18508;49.386;8.370;2022-09-09T10:46:09;18.20;99.90
31991;DHT22;18508;49.386;8.370;2022-09-09T10:48:49;18.20;99.90
31991;DHT22;18508;49.386;8.370;2022-09-09T10:51:25;18.40;99.90
31991;DHT22;18508;49.386;8.370;2022-09-09T10:54:12;18.30;99.90
31991;DHT22;18508;49.386;8.370;2022-09-09T10:56:45;18.30;99.90
31991;DHT22;18508;49.386;8.370;2022-09-09T10:59:19;18.40;99.90
31991;DHT22;18508;49.386;8.370;2022-09-09T11:01:55;19.10;99.90
31991;DHT22;18508;49.386;8.370;2022-09-09T11:04:30;18.60;99.90
31991;DHT22;18508;49.386;8.370;2022-09-09T11:07:09;18.50;99.90
31991;DHT22;18508;49.386;8.370;2022-09-09T11:09:42;18.60;99.90
31991;DHT22;18508;49.386;8.370;2022-09-09T11:12:18;19.00;99.90
31991;DHT22;18508;49.386;8.370;2022-09-09T11:14:50;19.20;99.90
31991;DHT22;18508;49.386;8.370;2022-09-09T11:17:23;19.30;99.90
31991;DHT22;18508;49.386;8.370;2022-09-09T11:19:52;19.40;99.90
31991;DHT22;18508;49.386;8.370;2022-09-09T11:22:27;19.10;99.90
31991;DHT22;18508;49.386;8.370;2022-09-09T11:24:59;19.40;99.90
31991;DHT22;18508;49.386;8.370;2022-09-09T11:27:35;19.60;99.90
31991;DHT22;18508;49.386;8.370;2022-09-09T11:30:16;19.80;99.90
31991;DHT22;18508;49.386;8.370;2022-09-09T11:33:25;19.70;99.90
31991;DHT22;18508;49.386;8.370;2022-09-09T11:38:50;19.50;99.90
31991;DHT22;18508;49.386;8.370;2022-09-09T11:41:20;19.40;99.90
31991;DHT22;18508;49.386;8.370;2022-09-09T11:43:51;19.50;99.90
31991;DHT22;18508;49.386;8.370;2022-09-09T11:46:21;19.70;99.90
31991;DHT22;18508;49.386;8.370;2022-09-09T11:49:01;20.30;99.90
31991;DHT22;18508;49.386;8.370;2022-09-09T11:51:31;20.70;99.90
31991;DHT22;18508;49.386;8.370;2022-09-09T11:54:01;20.90;99.90
31991;DHT22;18508;49.386;8.370;2022-09-09T11:56:33;21.00;99.90
31991;DHT22;18508;49.386;8.370;2022-09-09T11:59:05;21.50;99.90
31991;DHT22;18508;49.386;8.370;2022-09-09T12:01:37;21.30;99.90
31991;DHT22;18508;49.386;8.370;2022-09-09T12:04:25;21.20;99.90
31991;DHT22;18508;49.386;8.370;2022-09-09T12:06:58;20.90;99.90
31991;DHT22;18508;49.386;8.370;2022-09-09T12:09:43;20.80;99.90
31991;DHT22;18508;49.386;8.370;2022-09-09T12:12:23;20.80;99.90
31991;DHT22;18508;49.386;8.370;2022-09-09T12:14:59;21.00;99.90
31991;DHT22;18508;49.386;8.370;2022-09-09T12:17:29;21.50;99.90
31991;DHT22;18508;49.386;8.370;2022-09-09T12:20:06;21.80;99.90
31991;DHT22;18508;49.386;8.370;2022-09-09T12:22:47;22.00;99.90
31991;DHT22;18508;49.386;8.370;2022-09-09T12:25:26;22.30;99.90
31991;DHT22;18508;49.386;8.370;2022-09-09T12:28:05;22.10;99.90
31991;DHT22;18508;49.386;8.370;2022-09-09T12:30:49;22.40;99.90
31991;DHT22;18508;49.386;8.370;2022-09-09T12:33:21;22.30;99.50
31991;DHT22;18508;49.386;8.370;2022-09-09T12:35:55;22.40;99.90
31991;DHT22;18508;49.386;8.370;2022-09-09T12:38:30;22.30;99.90
31991;DHT22;18508;49.386;8.370;2022-09-09T12:41:02;22.90;99.90
31991;DHT22;18508;49.386;8.370;2022-09-09T12:43:31;23.20;94.10
31991;DHT22;18508;49.386;8.370;2022-09-09T12:46:03;23.50;99.90
31991;DHT22;18508;49.386;8.370;2022-09-09T12:48:36;23.50;96.90
31991;DHT22;18508;49.386;8.370;2022-09-09T12:51:17;23.30;88.20
31991;DHT22;18508;49.386;8.370;2022-09-09T12:53:47;23.60;73.80
31991;DHT22;18508;49.386;8.370;2022-09-09T12:56:23;23.60;63.00
31991;DHT22;18508;49.386;8.370;2022-09-09T12:58:55;23.90;57.70
31991;DHT22;18508;49.386;8.370;2022-09-09T13:01:26;24.80;69.40
31991;DHT22;18508;49.386;8.370;2022-09-09T13:03:56;24.80;54.00
31991;DHT22;18508;49.386;8.370;2022-09-09T13:06:27;24.60;50.50
31991;DHT22;18508;49.386;8.370;2022-09-09T13:08:58;24.40;46.50
31991;DHT22;18508;49.386;8.370;2022-09-09T13:11:35;24.40;47.40
31991;DHT22;18508;49.386;8.370;2022-09-09T13:14:05;23.80;47.60
31991;DHT22;18508;49.386;8.370;2022-09-09T13:16:35;23.10;51.70
31991;DHT22;18508;49.386;8.370;2022-09-09T13:19:13;22.80;50.90
31991;DHT22;18508;49.386;8.370;2022-09-09T13:21:44;23.00;55.70
31991;DHT22;18508;49.386;8.370;2022-09-09T13:24:25;23.50;47.60
31991;DHT22;18508;49.386;8.370;2022-09-09T13:26:56;24.00;45.40
31991;DHT22;18508;49.386;8.370;2022-09-09T13:29:24;24.40;41.40
31991;DHT22;18508;49.386;8.370;2022-09-09T13:31:53;24.50;42.60
31991;DHT22;18508;49.386;8.370;2022-09-09T13:34:27;24.20;37.20
31991;DHT22;18508;49.386;8.370;2022-09-09T13:36:59;23.20;43.30
31991;DHT22;18508;49.386;8.370;2022-09-09T13:39:30;23.50;44.70
31991;DHT22;18508;49.386;8.370;2022-09-09T13:41:58;23.90;47.50
31991;DHT22;18508;49.386;8.370;2022-09-09T13:44:27;23.50;44.60
31991;DHT22;18508;49.386;8.370;2022-09-09T13:47:01;22.90;53.50
31991;DHT22;18508;49.386;8.370;2022-09-09T13:49:36;22.50;59.10
31991;DHT22;18508;49.386;8.370;2022-09-09T13:52:09;23.00;59.50
31991;DHT22;18508;49.386;8.370;2022-09-09T13:54:38;23.90;58.10
31991;DHT22;18508;49.386;8.370;2022-09-09T13:57:12;24.20;52.70
31991;DHT22;18508;49.386;8.370;2022-09-09T13:59:42;23.70;48.50
31991;DHT22;18508;49.386;8.370;2022-09-09T14:02:29;24.40;41.40
31991;DHT22;18508;49.386;8.370;2022-09-09T14:04:57;24.40;39.60
31991;DHT22;18508;49.386;8.370;2022-09-09T14:07:27;24.70;36.20
31991;DHT22;18508;49.386;8.370;2022-09-09T14:09:55;24.80;31.90
31991;DHT22;18508;49.386;8.370;2022-09-09T14:12:24;24.20;35.40
31991;DHT22;18508;49.386;8.370;2022-09-09T14:14:52;24.10;37.50
31991;DHT22;18508;49.386;8.370;2022-09-09T14:17:21;24.50;36.80
31991;DHT22;18508;49.386;8.370;2022-09-09T14:19:52;25.00;34.90
31991;DHT22;18508;49.386;8.370;2022-09-09T14:22:20;25.10;35.60
31991;DHT22;18508;49.386;8.370;2022-09-09T14:24:50;24.00;50.40
31991;DHT22;18508;49.386;8.370;2022-09-09T14:27:19;24.10;38.00
31991;DHT22;18508;49.386;8.370;2022-09-09T14:29:47;23.70;40.20
31991;DHT22;18508;49.386;8.370;2022-09-09T14:32:16;23.50;40.30
31991;DHT22;18508;49.386;8.370;2022-09-09T14:34:43;23.30;43.40
31991;DHT22;18508;49.386;8.370;2022-09-09T14:37:11;23.10;45.60
31991;DHT22;18508;49.386;8.370;2022-09-09T14:39:39;23.00;49.80
31991;DHT22;18508;49.386;8.370;2022-09-09T14:42:12;22.70;52.70
31991;DHT22;18508;49.386;8.370;2022-09-09T14:44:40;22.50;73.10
31991;DHT22;18508;49.386;8.370;2022-09-09T14:47:08;21.90;99.90
31991;DHT22;18508;49.386;8.370;2022-09-09T14:49:36;21.40;99.90
31991;DHT22;18508;49.386;8.370;2022-09-09T14:52:09;20.70;99.90
31991;DHT22;18508;49.386;8.370;2022-09-09T14:54:39;20.10;99.90
31991;DHT22;18508;49.386;8.370;2022-09-09T14:59:36;16.20;99.90
31991;DHT22;18508;49.386;8.370;2022-09-09T15:02:07;15.80;99.90
31991;DHT22;18508;49.386;8.370;2022-09-09T15:04:41;15.60;99.90
31991;DHT22;18508;49.386;8.370;2022-09-09T15:07:11;15.70;99.90
31991;DHT22;18508;49.386;8.370;2022-09-09T15:09:39;15.50;99.90
31991;DHT22;18508;49.386;8.370;2022-09-09T15:12:07;15.20;99.90
31991;DHT22;18508;49.386;8.370;2022-09-09T15:14:36;15.30;99.90
31991;DHT22;18508;49.386;8.370;2022-09-09T15:17:05;15.20;99.90
31991;DHT22;18508;49.386;8.370;2022-09-09T15:22:01;14.90;99.90
31991;DHT22;18508;49.386;8.370;2022-09-09T15:24:29;14.80;99.90
31991;DHT22;18508;49.386;8.370;2022-09-09T15:26:57;14.80;99.90
31991;DHT22;18508;49.386;8.370;2022-09-09T15:29:27;14.90;99.90
31991;DHT22;18508;49.386;8.370;2022-09-09T15:31:56;14.90;99.90
31991;DHT22;18508;49.386;8.370;2022-09-09T15:34:24;15.00;99.90
31991;DHT22;18508;49.386;8.370;2022-09-09T15:36:55;15.70;99.90
31991;DHT22;18508;49.386;8.370;2022-09-09T15:39:23;16.00;99.90
31991;DHT22;18508;49.386;8.370;2022-09-09T15:41:51;17.00;99.90
31991;DHT22;18508;49.386;8.370;2022-09-09T15:44:19;16.90;99.90
31991;DHT22;18508;49.386;8.370;2022-09-09T15:46:56;18.50;99.90
31991;DHT22;18508;49.386;8.370;2022-09-09T15:49:28;18.60;99.90
31991;DHT22;18508;49.386;8.370;2022-09-09T15:57:13;19.40;99.90
31991;DHT22;18508;49.386;8.370;2022-09-09T15:59:42;19.20;99.90
31991;DHT22;18508;49.386;8.370;2022-09-09T16:04:46;18.40;99.90
31991;DHT22;18508;49.386;8.370;2022-09-09T16:07:14;17.90;99.90
31991;DHT22;18508;49.386;8.370;2022-09-09T16:09:42;18.00;99.90
31991;DHT22;18508;49.386;8.370;2022-09-09T16:12:11;17.60;99.90
31991;DHT22;18508;49.386;8.370;2022-09-09T16:14:39;17.40;99.90
31991;DHT22;18508;49.386;8.370;2022-09-09T16:17:08;17.30;99.90
31991;DHT22;18508;49.386;8.370;2022-09-09T16:19:37;17.30;99.90
31991;DHT22;18508;49.386;8.370;2022-09-09T16:22:06;17.20;99.90
31991;DHT22;18508;49.386;8.370;2022-09-09T16:24:35;17.60;99.90
31991;DHT22;18508;49.386;8.370;2022-09-09T16:27:04;16.50;99.90
31991;DHT22;18508;49.386;8.370;2022-09-09T16:29:34;16.80;99.90